Ash, Missouri
Current Conditions -  °F | °C
As of 8:15 AM on Wednesday 26 Nov 2014 (Local Time) from KVER Reporting Station
Light Rain Light Rain  
Wind Chill: 28°   Ceiling: 700
Heat Index: 33°   Visibility: 4mi
Dew Point: 33°   Wind: 5mph
Humidity: 100%   Direction: 170°S
Pressure: 29.95"   Gusts: NA
Location:  39.4792°N, 92.217°W
Report Text: KVER 261415Z AUTO 17004KT 4SM -RA BKN007 OVC012 00/00 A2995 RMK AO2 T00030003
Loading
Personal Weather Stations






























Interactive Weather Map New forecast layout! Learn more

10-Day Weather Forecast

Advertisements
Track Severe Weather on mobile